createdAt,value
2023-04-16T00:00:06.555Z,100706.78
2023-04-16T00:01:11.897Z,100705.44
2023-04-16T00:02:17.470Z,100703.52
2023-04-16T00:03:23.516Z,100709.88
2023-04-16T00:04:29.344Z,100710.88
2023-04-16T00:05:34.891Z,100706.37
2023-04-16T00:06:40.192Z,100710.46
2023-04-16T00:07:45.504Z,100714.34
2023-04-16T00:08:50.865Z,100710.88
2023-04-16T00:09:56.190Z,100720.84
2023-04-16T00:11:01.521Z,100714.14
2023-04-16T00:12:06.877Z,100710.64
2023-04-16T00:13:12.190Z,100716.82
2023-04-16T00:14:17.548Z,100709.3
2023-04-16T00:15:22.895Z,100716.48
2023-04-16T00:16:28.297Z,100716.48
2023-04-16T00:17:33.660Z,100708.44
2023-04-16T00:18:39.093Z,100721.02
2023-04-16T00:19:44.441Z,100717.82
2023-04-16T00:20:49.758Z,100721.58
2023-04-16T00:21:56.096Z,100721.16
2023-04-16T00:23:01.430Z,100722.02
2023-04-16T00:24:06.803Z,100718.14
2023-04-16T00:25:12.151Z,100720.34
2023-04-16T00:26:17.488Z,100721.23
2023-04-16T00:27:22.851Z,100715.31
2023-04-16T00:28:28.167Z,100717
2023-04-16T00:29:33.505Z,100720.02
2023-04-16T00:30:39.165Z,100716.41
2023-04-16T00:31:44.552Z,100713.88
2023-04-16T00:32:50.010Z,100720.16
2023-04-16T00:33:55.425Z,100720.58
2023-04-16T00:35:00.759Z,100721.23
2023-04-16T00:36:06.090Z,100721.55
2023-04-16T00:37:11.434Z,100719.66
2023-04-16T00:38:17.036Z,100722.41
2023-04-16T00:39:22.410Z,100728.59
2023-04-16T00:40:27.736Z,100726.25
2023-04-16T00:41:33.052Z,100725.5
2023-04-16T00:42:38.385Z,100725.16
2023-04-16T00:43:43.808Z,100729.45
2023-04-16T00:44:49.177Z,100727.43
2023-04-16T00:45:54.545Z,100736.22
2023-04-16T00:46:59.971Z,100735.63
2023-04-16T00:48:05.549Z,100733.81
2023-04-16T00:49:11.226Z,100725.43
2023-04-16T00:50:18.968Z,100732.55
2023-04-16T00:51:24.399Z,100734.4
2023-04-16T00:52:29.737Z,100740.24
2023-04-16T00:53:35.077Z,100738.91
2023-04-16T00:54:40.416Z,100744.67
2023-04-16T00:55:45.779Z,100741.08
2023-04-16T00:56:52.137Z,100743.17
2023-04-16T00:57:57.482Z,100747.12
2023-04-16T00:59:02.935Z,100746.6
2023-04-16T01:00:08.329Z,100744.78
2023-04-16T01:01:13.736Z,100744.44
2023-04-16T01:02:19.264Z,100748.63
2023-04-16T01:03:24.908Z,100742.34
2023-04-16T01:04:30.822Z,100741.31
2023-04-16T01:05:36.438Z,100743.44
2023-04-16T01:06:41.789Z,100736.98
2023-04-16T01:07:47.158Z,100738.73
2023-04-16T01:08:52.490Z,100735.87
2023-04-16T01:09:57.849Z,100739.73
2023-04-16T01:11:03.253Z,100737.54
2023-04-16T01:12:08.593Z,100739.15
2023-04-16T01:13:13.924Z,100740.48
2023-04-16T01:14:19.364Z,100743.83
2023-04-16T01:15:24.827Z,100746.68
2023-04-16T01:16:31.213Z,100745.68
2023-04-16T01:17:36.648Z,100740.33
2023-04-16T01:18:42.041Z,100743.75
2023-04-16T01:19:47.485Z,100743.41
2023-04-16T01:20:52.821Z,100743.34
2023-04-16T01:21:58.145Z,100739.3
2023-04-16T01:23:03.491Z,100745.75
2023-04-16T01:24:08.836Z,100739.88
2023-04-16T01:25:14.229Z,100740.98
2023-04-16T01:26:19.568Z,100750.02
2023-04-16T01:27:24.880Z,100748.58
2023-04-16T01:28:32.567Z,100752.94
2023-04-16T01:29:37.900Z,100749.02
2023-04-16T01:30:43.255Z,100739.3
2023-04-16T01:31:48.799Z,100745
2023-04-16T01:32:54.385Z,100739.64
2023-04-16T01:33:59.821Z,100739.64
2023-04-16T01:35:05.167Z,100735.77
2023-04-16T01:36:10.527Z,100743.32
2023-04-16T01:37:15.867Z,100740.78
2023-04-16T01:38:21.197Z,100742.37
2023-04-16T01:39:26.526Z,100745.46
2023-04-16T01:40:32.897Z,100743.98
2023-04-16T01:41:38.277Z,100736.42
2023-04-16T01:42:43.627Z,100741.71
2023-04-16T01:43:49.036Z,100740.78
2023-04-16T01:44:54.363Z,100743.7
2023-04-16T01:45:59.730Z,100743.3
2023-04-16T01:47:05.188Z,100735.59
2023-04-16T01:48:10.640Z,100744.53
2023-04-16T01:49:16.018Z,100736.77
2023-04-16T01:50:21.369Z,100744.98
2023-04-16T01:51:26.688Z,100744.84
2023-04-16T01:52:32.046Z,100740.34
2023-04-16T01:53:38.568Z,100743.3
2023-04-16T01:54:44.174Z,100741.03
2023-04-16T01:55:49.478Z,100749.66
2023-04-16T01:56:54.788Z,100748.8
2023-04-16T01:58:00.166Z,100745.02
2023-04-16T01:59:05.507Z,100747.31
2023-04-16T02:00:11.064Z,100741.69
2023-04-16T02:01:16.474Z,100746.05
2023-04-16T02:02:22.194Z,100741.61
2023-04-16T02:03:28.200Z,100747.8
2023-04-16T02:04:33.820Z,100744.7
2023-04-16T02:05:39.180Z,100745.77
2023-04-16T02:06:44.491Z,100747.12
2023-04-16T02:07:49.827Z,100743.09
2023-04-16T02:08:55.176Z,100738.94
2023-04-16T02:10:00.540Z,100748.73
2023-04-16T02:11:05.896Z,100747.05
2023-04-16T02:12:11.286Z,100743.37
2023-04-16T02:13:16.699Z,100747.53
2023-04-16T02:14:22.024Z,100744.02
2023-04-16T02:15:27.388Z,100748.87
2023-04-16T02:16:32.803Z,100747.36
2023-04-16T02:17:38.292Z,100747.43
2023-04-16T02:18:43.704Z,100751.72
2023-04-16T02:19:49.050Z,100746.29
2023-04-16T02:20:54.445Z,100756.22
2023-04-16T02:21:59.761Z,100748.11
2023-04-16T02:23:05.088Z,100755.22
2023-04-16T02:24:10.415Z,100753.89
2023-04-16T02:25:15.757Z,100754.67
2023-04-16T02:26:21.063Z,100751.2
2023-04-16T02:27:26.406Z,100751.04
2023-04-16T02:28:32.021Z,100751.8
2023-04-16T02:29:37.405Z,100759.42
2023-04-16T02:30:42.923Z,100758.33
2023-04-16T02:31:48.327Z,100756.3
2023-04-16T02:32:53.893Z,100754.1
2023-04-16T02:33:59.306Z,100755.1
2023-04-16T02:35:04.664Z,100756.64
2023-04-16T02:36:09.991Z,100754.3
2023-04-16T02:37:15.380Z,100759.46
2023-04-16T02:38:20.769Z,100755.03
2023-04-16T02:39:26.156Z,100766.61
2023-04-16T02:40:31.499Z,100757.55
2023-04-16T02:41:36.840Z,100756.95
2023-04-16T02:42:42.205Z,100758.36
2023-04-16T02:43:47.526Z,100759.91
2023-04-16T02:44:52.858Z,100757.44
2023-04-16T02:45:58.308Z,100753.59
2023-04-16T02:47:03.770Z,100754.62
2023-04-16T02:48:09.090Z,100758.36
2023-04-16T02:49:14.429Z,100759.8
2023-04-16T02:50:19.755Z,100754.45
2023-04-16T02:51:25.128Z,100758.91
2023-04-16T02:52:30.467Z,100757.91
2023-04-16T02:53:35.808Z,100757.33
2023-04-16T02:54:41.174Z,100760.08
2023-04-16T02:55:46.595Z,100757.64
2023-04-16T02:56:51.934Z,100761.73
2023-04-16T02:57:57.279Z,100765.41
2023-04-16T02:59:02.630Z,100765.99
2023-04-16T03:00:08.565Z,100764.23
2023-04-16T03:01:14.061Z,100766.95
2023-04-16T03:02:19.451Z,100769.08
2023-04-16T03:03:25.046Z,100767.16
2023-04-16T03:04:30.518Z,100767.5
2023-04-16T03:05:36.412Z,100766.09
2023-04-16T03:06:44.410Z,100772.37
2023-04-16T03:07:49.785Z,100762.66
2023-04-16T03:08:55.177Z,100771.79
2023-04-16T03:10:00.504Z,100771.65
2023-04-16T03:11:05.901Z,100772.72
2023-04-16T03:12:11.237Z,100774.2
2023-04-16T03:13:16.593Z,100772.45
2023-04-16T03:14:21.919Z,100771.45
2023-04-16T03:15:27.341Z,100773.2
2023-04-16T03:16:32.713Z,100773.81
2023-04-16T03:17:38.128Z,100775.56
2023-04-16T03:18:43.566Z,100775.67
2023-04-16T03:19:48.914Z,100777.25
2023-04-16T03:20:54.509Z,100779.17
2023-04-16T03:21:59.819Z,100777.01
2023-04-16T03:23:05.186Z,100780.69
2023-04-16T03:24:10.566Z,100781.44
2023-04-16T03:25:15.893Z,100771.81
2023-04-16T03:26:21.226Z,100771.13
2023-04-16T03:27:26.555Z,100780.44
2023-04-16T03:28:31.945Z,100774.22
2023-04-16T03:29:37.272Z,100784.28
2023-04-16T03:30:42.651Z,100784.36
2023-04-16T03:31:48.038Z,100784.46
2023-04-16T03:32:53.555Z,100784.53
2023-04-16T03:33:59.097Z,100781.85
2023-04-16T03:35:04.610Z,100781.09
2023-04-16T03:36:09.986Z,100776.88
2023-04-16T03:37:15.324Z,100789.28
2023-04-16T03:38:22.914Z,100788.52
2023-04-16T03:39:28.275Z,100788.94
2023-04-16T03:40:33.580Z,100791.86
2023-04-16T03:41:38.932Z,100786.16
2023-04-16T03:42:44.295Z,100787.02
2023-04-16T03:43:49.631Z,100785.02
2023-04-16T03:44:55.013Z,100790.52
2023-04-16T03:46:00.408Z,100795.39
2023-04-16T03:47:08.124Z,100794.19
2023-04-16T03:48:13.478Z,100801.16
2023-04-16T03:49:18.832Z,100796.29
2023-04-16T03:50:24.253Z,100800.48
2023-04-16T03:51:29.612Z,100796.94
2023-04-16T03:52:34.999Z,100796.63
2023-04-16T03:53:40.332Z,100804.67
2023-04-16T03:54:45.680Z,100801.89
2023-04-16T03:55:51.000Z,100804.22
2023-04-16T03:56:56.327Z,100804.3
2023-04-16T03:58:01.678Z,100807.08
2023-04-16T03:59:07.075Z,100813.46
2023-04-16T04:00:12.773Z,100818.58
2023-04-16T04:01:18.148Z,100812.02
2023-04-16T04:02:23.881Z,100817.66
2023-04-16T04:03:30.126Z,100820.98
2023-04-16T04:04:36.310Z,100814.56
2023-04-16T04:05:41.855Z,100820.91
2023-04-16T04:06:47.188Z,100821.94
2023-04-16T04:07:52.506Z,100825.99
2023-04-16T04:08:57.860Z,100824.69
2023-04-16T04:10:03.293Z,100824.95
2023-04-16T04:11:08.621Z,100820.23
2023-04-16T04:12:14.008Z,100823.45
2023-04-16T04:13:19.363Z,100828.11
2023-04-16T04:14:24.699Z,100832.77
2023-04-16T04:15:30.025Z,100833.37
2023-04-16T04:16:35.544Z,100839.86
2023-04-16T04:17:41.089Z,100833.14
2023-04-16T04:18:46.527Z,100832.82
2023-04-16T04:20:02.333Z,100836.94
2023-04-16T04:21:07.748Z,100833.34
2023-04-16T04:22:13.157Z,100841
2023-04-16T04:23:18.535Z,100832.22
2023-04-16T04:24:23.871Z,100833.9
2023-04-16T04:25:29.181Z,100839.02
2023-04-16T04:26:34.596Z,100837.94
2023-04-16T04:27:40.038Z,100838.77
2023-04-16T04:28:45.378Z,100844.13
2023-04-16T04:29:50.698Z,100845.47
2023-04-16T04:30:56.044Z,100844.73
2023-04-16T04:32:01.485Z,100847.08
2023-04-16T04:33:07.217Z,100845.48
2023-04-16T04:34:12.578Z,100849.27
2023-04-16T04:35:17.870Z,100850.2
2023-04-16T04:36:23.203Z,100850.2
2023-04-16T04:37:28.592Z,100849.78
2023-04-16T04:38:33.895Z,100848.27
2023-04-16T04:39:39.213Z,100855.15
2023-04-16T04:40:44.548Z,100853.39
2023-04-16T04:41:49.897Z,100851.95
2023-04-16T04:42:55.261Z,100852.62
2023-04-16T04:44:00.584Z,100859.25
2023-04-16T04:45:05.964Z,100853.87
2023-04-16T04:46:11.401Z,100858.56
2023-04-16T04:47:16.826Z,100855.2
2023-04-16T04:48:22.264Z,100866.28
2023-04-16T04:49:27.821Z,100863.42
2023-04-16T04:50:33.190Z,100865.77
2023-04-16T04:51:38.525Z,100868.94
2023-04-16T04:52:44.090Z,100869.59
2023-04-16T04:53:49.461Z,100864.41
2023-04-16T04:54:54.781Z,100869.68
2023-04-16T04:56:13.267Z,100869.14
2023-04-16T04:57:18.688Z,100862.09
2023-04-16T04:58:24.008Z,100867.05
2023-04-16T04:59:30.356Z,100864.61
2023-04-16T05:00:35.731Z,100868.55
2023-04-16T05:01:41.281Z,100870.78
2023-04-16T05:02:46.920Z,100863.84
2023-04-16T05:03:55.778Z,100867.59
2023-04-16T05:05:01.446Z,100871.31
2023-04-16T05:06:06.948Z,100869.56
2023-04-16T05:07:12.283Z,100871.63
2023-04-16T05:08:17.660Z,100866.44
2023-04-16T05:09:22.999Z,100872.28
2023-04-16T05:10:28.360Z,100870.53
2023-04-16T05:11:33.796Z,100871.7
2023-04-16T05:12:39.113Z,100868.68
2023-04-16T05:13:44.500Z,100869.92
2023-04-16T05:14:49.903Z,100876.28
2023-04-16T05:15:55.261Z,100875.53
2023-04-16T05:17:00.833Z,100867.14
2023-04-16T05:18:06.472Z,100876.59
2023-04-16T05:19:12.291Z,100869.48
2023-04-16T05:20:17.767Z,100875.91
2023-04-16T05:21:23.213Z,100879.45
2023-04-16T05:22:28.689Z,100877.25
2023-04-16T05:23:34.063Z,100879.69
2023-04-16T05:24:39.403Z,100873.89
2023-04-16T05:25:44.762Z,100878.7
2023-04-16T05:26:50.125Z,100882.72
2023-04-16T05:27:55.432Z,100882.55
2023-04-16T05:29:00.782Z,100880.38
2023-04-16T05:30:06.151Z,100884.47
2023-04-16T05:31:11.732Z,100885.13
2023-04-16T05:32:17.273Z,100885.71
2023-04-16T05:33:22.688Z,100883.38
2023-04-16T05:34:31.033Z,100881.69
2023-04-16T05:35:36.417Z,100891.31
2023-04-16T05:36:41.776Z,100885.54
2023-04-16T05:37:47.136Z,100892.24
2023-04-16T05:38:52.463Z,100889.49
2023-04-16T05:39:57.790Z,100891.66
2023-04-16T05:41:03.165Z,100896.27
2023-04-16T05:42:10.917Z,100891.24
2023-04-16T05:43:16.289Z,100893
2023-04-16T05:44:21.686Z,100894.52
2023-04-16T05:45:29.270Z,100889.56
2023-04-16T05:46:34.697Z,100894.44
2023-04-16T05:47:40.279Z,100904.23
2023-04-16T05:48:45.679Z,100901.63
2023-04-16T05:49:50.997Z,100897.67
2023-04-16T05:50:56.320Z,100903.38
2023-04-16T05:52:01.627Z,100903.38
2023-04-16T05:53:06.946Z,100903.73
2023-04-16T05:54:12.329Z,100896.02
2023-04-16T05:55:17.660Z,100906.75
2023-04-16T05:56:23.010Z,100903.58
2023-04-16T05:57:28.363Z,100908.09
2023-04-16T05:58:36.079Z,100902.55
2023-04-16T05:59:41.417Z,100903.24
2023-04-16T06:00:46.776Z,100905.99
2023-04-16T06:01:52.189Z,100905.58
2023-04-16T06:02:57.924Z,100909.84
2023-04-16T06:04:03.973Z,100911.08
2023-04-16T06:05:09.611Z,100909.4
2023-04-16T06:06:15.025Z,100906.16
2023-04-16T06:07:20.593Z,100912.42
2023-04-16T06:08:25.891Z,100913.94
2023-04-16T06:09:31.204Z,100911.59
2023-04-16T06:10:36.566Z,100915.96
2023-04-16T06:11:41.915Z,100911.77
2023-04-16T06:12:47.321Z,100920.91
2023-04-16T06:13:52.685Z,100917.95
2023-04-16T06:14:58.007Z,100917.09
2023-04-16T06:16:03.435Z,100924.25
2023-04-16T06:17:08.908Z,100924.56
2023-04-16T06:18:14.371Z,100924.56
2023-04-16T06:19:19.862Z,100924.87
2023-04-16T06:20:25.188Z,100930.3
2023-04-16T06:21:30.522Z,100932.33
2023-04-16T06:22:35.936Z,100933.67
2023-04-16T06:23:41.256Z,100929.16
2023-04-16T06:24:46.610Z,100931.06
2023-04-16T06:25:52.964Z,100931.84
2023-04-16T06:26:58.274Z,100938.37
2023-04-16T06:28:03.610Z,100936.04
2023-04-16T06:29:09.512Z,100935.38
2023-04-16T06:30:15.376Z,100937.89
2023-04-16T06:31:20.826Z,100936.89
2023-04-16T06:32:26.294Z,100943.42
2023-04-16T06:33:31.687Z,100941.16
2023-04-16T06:34:37.032Z,100938.99
2023-04-16T06:35:43.415Z,100941.23
2023-04-16T06:36:48.742Z,100941.81
2023-04-16T06:37:54.086Z,100943.42
2023-04-16T06:38:59.394Z,100943.84
2023-04-16T06:40:04.901Z,100942.16
2023-04-16T06:41:10.259Z,100943.5
2023-04-16T06:42:15.586Z,100943.22
2023-04-16T06:43:20.900Z,100941.47
2023-04-16T06:44:26.223Z,100942.4
2023-04-16T06:45:31.776Z,100942.88
2023-04-16T06:46:37.210Z,100941.54
2023-04-16T06:47:42.664Z,100947.25
2023-04-16T06:48:48.095Z,100945.84
2023-04-16T06:49:53.430Z,100942.57
2023-04-16T06:50:58.823Z,100939.23
2023-04-16T06:52:07.023Z,100949.55
2023-04-16T06:53:12.477Z,100945.7
2023-04-16T06:54:17.898Z,100947.17
2023-04-16T06:55:23.250Z,100950.92
2023-04-16T06:56:28.576Z,100950.92
2023-04-16T06:57:35.157Z,100943.05
2023-04-16T06:58:41.858Z,100948.34
2023-04-16T06:59:47.170Z,100954.53
2023-04-16T07:00:52.643Z,100960.17
2023-04-16T07:01:58.317Z,100954.05
2023-04-16T07:03:04.157Z,100961.61
2023-04-16T07:04:10.310Z,100959.69
2023-04-16T07:05:16.155Z,100963.74
2023-04-16T07:06:21.507Z,100965.22
2023-04-16T07:07:26.825Z,100967.41
2023-04-16T07:08:32.154Z,100968.92
2023-04-16T07:09:37.469Z,100961.69
2023-04-16T07:10:45.878Z,100965.64
2023-04-16T07:11:51.337Z,100971.32
2023-04-16T07:12:56.654Z,100970.36
2023-04-16T07:14:02.008Z,100969.95
2023-04-16T07:15:07.407Z,100977.83
2023-04-16T07:16:12.901Z,100971.44
2023-04-16T07:17:18.313Z,100972.92
2023-04-16T07:18:23.635Z,100979.11
2023-04-16T07:19:29.001Z,100975.26
2023-04-16T07:20:34.364Z,100974.7
2023-04-16T07:21:39.712Z,100973.44
2023-04-16T07:22:45.045Z,100975.78
2023-04-16T07:23:50.400Z,100966.84
2023-04-16T07:24:55.760Z,100971.27
2023-04-16T07:26:01.073Z,100977.22
2023-04-16T07:27:06.633Z,100976.43
2023-04-16T07:28:12.049Z,100978.7
2023-04-16T07:29:17.378Z,100983.13
2023-04-16T07:30:22.723Z,100984.47
2023-04-16T07:31:28.281Z,100985.4
2023-04-16T07:32:33.786Z,100980.04
2023-04-16T07:33:39.261Z,100983.64
2023-04-16T07:34:44.657Z,100984.12
2023-04-16T07:35:50.049Z,100978.86
2023-04-16T07:36:55.426Z,100990.93
2023-04-16T07:38:00.790Z,100984.64
2023-04-16T07:39:06.191Z,100987.46
2023-04-16T07:40:11.649Z,100988.45
2023-04-16T07:41:17.014Z,100988.22
2023-04-16T07:42:22.370Z,100988.7
2023-04-16T07:43:27.705Z,100992.72
2023-04-16T07:44:33.023Z,100987.8
2023-04-16T07:45:38.442Z,100988.35
2023-04-16T07:46:48.887Z,100987.8
2023-04-16T07:47:54.496Z,100993.23
2023-04-16T07:48:59.888Z,100992.3
2023-04-16T07:50:05.219Z,100993.71
2023-04-16T07:51:10.612Z,100991.95
2023-04-16T07:52:15.999Z,100994.02
2023-04-16T07:53:21.401Z,100994.7
2023-04-16T07:54:29.270Z,100994.7
2023-04-16T07:55:34.637Z,100989.11
2023-04-16T07:56:39.994Z,100990.52
2023-04-16T07:57:45.379Z,100995.59
2023-04-16T07:58:50.720Z,100993.91
2023-04-16T07:59:56.044Z,100993.64
2023-04-16T08:01:01.403Z,101006.22
2023-04-16T08:02:06.854Z,100991.54
2023-04-16T08:03:16.007Z,100995.87
2023-04-16T08:04:22.149Z,101007.1
2023-04-16T08:05:27.983Z,100993.02
2023-04-16T08:06:33.497Z,101004.38
2023-04-16T08:07:38.863Z,101003.52
2023-04-16T08:08:44.261Z,101006.41
2023-04-16T08:09:49.619Z,101005.83
2023-04-16T08:10:55.014Z,100999.55
2023-04-16T08:12:00.492Z,101001.57
2023-04-16T08:13:05.875Z,101000.58
2023-04-16T08:14:11.254Z,101003.19
2023-04-16T08:15:16.660Z,101005.52
2023-04-16T08:16:22.259Z,101010.23
2023-04-16T08:17:27.923Z,101006.7
2023-04-16T08:18:33.332Z,101010.23
2023-04-16T08:19:40.936Z,101011.06
2023-04-16T08:20:46.272Z,101007.9
2023-04-16T08:21:51.621Z,101016.25
2023-04-16T08:22:56.956Z,101008.14
2023-04-16T08:24:02.333Z,101006.35
2023-04-16T08:25:07.692Z,101012.23
2023-04-16T08:26:13.032Z,101007
2023-04-16T08:27:21.235Z,101007.34
2023-04-16T08:28:26.576Z,101013.29
2023-04-16T08:29:31.933Z,101012.87
2023-04-16T08:30:37.307Z,101016.83
2023-04-16T08:31:42.821Z,101012.36
2023-04-16T08:32:51.389Z,101019.3
2023-04-16T08:33:56.752Z,101015.14
2023-04-16T08:35:02.209Z,101022.49
2023-04-16T08:36:07.602Z,101019.05
2023-04-16T08:37:12.922Z,101018.09
2023-04-16T08:38:18.237Z,101017.12
2023-04-16T08:39:23.570Z,101016.33
2023-04-16T08:40:28.938Z,101023.08
2023-04-16T08:41:34.286Z,101024.56
2023-04-16T08:42:39.655Z,101022.78
2023-04-16T08:43:45.026Z,101023.98
2023-04-16T08:44:50.860Z,101022.12
2023-04-16T08:45:56.209Z,101032.72
2023-04-16T08:47:01.712Z,101030.37
2023-04-16T08:48:07.118Z,101031.38
2023-04-16T08:49:12.838Z,101035.81
2023-04-16T08:50:18.251Z,101034.75
2023-04-16T08:51:23.613Z,101033.75
2023-04-16T08:52:29.123Z,101031.48
2023-04-16T08:53:34.549Z,101036.7
2023-04-16T08:54:39.876Z,101030.55
2023-04-16T08:55:45.204Z,101032.48
2023-04-16T08:56:50.548Z,101036.36
2023-04-16T08:57:55.901Z,101034.03
2023-04-16T08:59:01.207Z,101033.28
2023-04-16T09:00:06.640Z,101032.38
2023-04-16T09:01:12.034Z,101035.61
2023-04-16T09:02:17.643Z,101039.64
2023-04-16T09:03:23.592Z,101033.45
2023-04-16T09:04:29.649Z,101035.55
2023-04-16T09:05:35.442Z,101041.83
2023-04-16T09:06:40.784Z,101035.27
2023-04-16T09:07:46.121Z,101035.38
2023-04-16T09:08:51.495Z,101039.91
2023-04-16T09:09:56.900Z,101037.98
2023-04-16T09:11:02.238Z,101044.76
2023-04-16T09:12:07.608Z,101039.5
2023-04-16T09:13:12.974Z,101042.52
2023-04-16T09:14:18.365Z,101044.3
2023-04-16T09:15:23.705Z,101044.58
2023-04-16T09:16:29.088Z,101051.8
2023-04-16T09:17:34.558Z,101041.08
2023-04-16T09:18:39.961Z,101050.7
2023-04-16T09:19:45.326Z,101043.17
2023-04-16T09:20:50.756Z,101048.02
2023-04-16T09:21:56.103Z,101049.7
2023-04-16T09:23:01.487Z,101059.95
2023-04-16T09:24:06.868Z,101051.05
2023-04-16T09:25:12.217Z,101048.3
2023-04-16T09:26:17.660Z,101054.59
2023-04-16T09:27:25.443Z,101053.83
2023-04-16T09:28:31.370Z,101056.92
2023-04-16T09:29:36.725Z,101057.41
2023-04-16T09:30:42.046Z,101056.83
2023-04-16T09:31:47.450Z,101060.43
2023-04-16T09:32:52.972Z,101055.34
2023-04-16T09:33:58.405Z,101057.03
2023-04-16T09:35:03.800Z,101057.72
2023-04-16T09:36:09.134Z,101060.98
2023-04-16T09:37:14.474Z,101058.65
2023-04-16T09:38:19.792Z,101050.02
2023-04-16T09:39:25.241Z,101057.21
2023-04-16T09:40:30.666Z,101055.97
2023-04-16T09:41:36.203Z,101059.82
2023-04-16T09:42:41.603Z,101059.75
2023-04-16T09:43:46.968Z,101061.51
2023-04-16T09:44:52.338Z,101056.56
2023-04-16T09:45:57.777Z,101058.25
2023-04-16T09:47:03.175Z,101062.2
2023-04-16T09:48:08.552Z,101058.11
2023-04-16T09:49:14.243Z,101057.59
2023-04-16T09:50:20.412Z,101062.55
2023-04-16T09:51:25.862Z,101063.47
2023-04-16T09:52:31.252Z,101063.47
2023-04-16T09:53:36.629Z,101063.41
2023-04-16T09:54:42.005Z,101065.16
2023-04-16T09:55:48.353Z,101060.97
2023-04-16T09:56:53.709Z,101062.82
2023-04-16T09:57:59.074Z,101065.78
2023-04-16T09:59:04.437Z,101062.47
2023-04-16T10:00:09.802Z,101066.43
2023-04-16T10:01:15.607Z,101070
2023-04-16T10:02:21.170Z,101065.5
2023-04-16T10:03:27.639Z,101067.33
2023-04-16T10:04:33.539Z,101064.81
2023-04-16T10:05:38.994Z,101064.4
2023-04-16T10:06:44.321Z,101067.25
2023-04-16T10:07:49.667Z,101071.21
2023-04-16T10:08:54.995Z,101067.59
2023-04-16T10:10:00.355Z,101061.83
2023-04-16T10:11:05.782Z,101067.36
2023-04-16T10:12:11.345Z,101072.48
2023-04-16T10:13:17.738Z,101076.71
2023-04-16T10:14:23.110Z,101077.36
2023-04-16T10:15:28.460Z,101076.36
2023-04-16T10:16:33.828Z,101081.59
2023-04-16T10:17:39.257Z,101078.56
2023-04-16T10:18:44.790Z,101079.32
2023-04-16T10:19:50.121Z,101074.89
2023-04-16T10:20:55.472Z,101079.19
2023-04-16T10:22:00.805Z,101075.58
2023-04-16T10:23:06.172Z,101076.75
2023-04-16T10:24:11.489Z,101079.43
2023-04-16T10:25:16.819Z,101084.14
2023-04-16T10:26:22.154Z,101081.43
2023-04-16T10:27:27.524Z,101085.63
2023-04-16T10:28:32.862Z,101083.02
2023-04-16T10:29:38.188Z,101079.64
2023-04-16T10:30:43.589Z,101088.08
2023-04-16T10:31:48.970Z,101085.49
2023-04-16T10:32:54.368Z,101085.49
2023-04-16T10:34:01.587Z,101089.52
2023-04-16T10:35:07.006Z,101087.48
2023-04-16T10:36:12.406Z,101088.77
2023-04-16T10:37:17.837Z,101092.55
2023-04-16T10:38:23.199Z,101091.76
2023-04-16T10:39:28.542Z,101085.98
2023-04-16T10:40:33.902Z,101095.55
2023-04-16T10:41:39.367Z,101093.2
2023-04-16T10:42:44.695Z,101083.75
2023-04-16T10:43:50.018Z,101082.33
2023-04-16T10:44:55.366Z,101090.63
2023-04-16T10:46:00.761Z,101087.8
2023-04-16T10:47:06.166Z,101087.7
2023-04-16T10:48:11.511Z,101092.52
2023-04-16T10:49:16.918Z,101095.61
2023-04-16T10:50:22.219Z,101097.02
2023-04-16T10:51:27.573Z,101096.2
2023-04-16T10:52:32.958Z,101095.99
2023-04-16T10:53:38.315Z,101094.99
2023-04-16T10:54:43.651Z,101094.09
2023-04-16T10:55:48.985Z,101097.61
2023-04-16T10:56:54.351Z,101093.07
2023-04-16T10:57:59.655Z,101101.47
2023-04-16T10:59:04.966Z,101102.91
2023-04-16T11:00:10.323Z,101105.48
2023-04-16T11:01:15.798Z,101106.93
2023-04-16T11:02:21.694Z,101098.3
2023-04-16T11:03:30.070Z,101094.75
2023-04-16T11:04:35.964Z,101103.66
2023-04-16T11:05:41.652Z,101095.61
2023-04-16T11:06:47.043Z,101099.56
2023-04-16T11:07:52.361Z,101101.47
2023-04-16T11:08:57.668Z,101099.64
2023-04-16T11:10:03.082Z,101096.54
2023-04-16T11:11:08.433Z,101107.17
2023-04-16T11:12:13.768Z,101096.64
2023-04-16T11:13:19.128Z,101097.47
2023-04-16T11:14:24.443Z,101105.69
2023-04-16T11:15:29.808Z,101102.5
2023-04-16T11:16:35.223Z,101103.84
2023-04-16T11:17:40.812Z,101104.11
2023-04-16T11:18:54.530Z,101102.02
2023-04-16T11:20:01.109Z,101104.77
2023-04-16T11:21:06.471Z,101105.11
2023-04-16T11:22:11.779Z,101107.62
2023-04-16T11:23:17.148Z,101106.17
2023-04-16T11:24:23.381Z,101104.08
2023-04-16T11:25:30.368Z,101104.49
2023-04-16T11:26:35.904Z,101101.16
2023-04-16T11:27:41.308Z,101099.16
2023-04-16T11:28:46.908Z,101106.8
2023-04-16T11:29:52.251Z,101101.73
2023-04-16T11:30:57.618Z,101105.14
2023-04-16T11:32:03.053Z,101110.41
2023-04-16T11:33:08.507Z,101101.77
2023-04-16T11:34:13.818Z,101111.23
2023-04-16T11:35:19.254Z,101105.86
2023-04-16T11:36:27.867Z,101107.34
2023-04-16T11:38:11.716Z,101102.77
2023-04-16T11:39:17.130Z,101106.09
2023-04-16T11:40:22.444Z,101105.52
2023-04-16T11:41:27.866Z,101101.63
2023-04-16T11:42:33.327Z,101105.83
2023-04-16T11:43:38.817Z,101109.33
2023-04-16T11:44:44.131Z,101111.53
2023-04-16T11:45:49.501Z,101100.53
2023-04-16T11:46:55.020Z,101104.14
2023-04-16T11:48:00.579Z,101108.51
2023-04-16T11:49:06.063Z,101103.07
2023-04-16T11:50:11.481Z,101101.8
2023-04-16T11:51:16.842Z,101103.28
2023-04-16T11:52:22.178Z,101103.28
2023-04-16T11:53:27.507Z,101104.63
2023-04-16T11:54:32.906Z,101101.52
2023-04-16T11:55:38.222Z,101105.27
2023-04-16T11:56:43.561Z,101098.22
2023-04-16T11:57:48.898Z,101108.05
2023-04-16T11:58:56.160Z,101112.49
2023-04-16T12:00:05.509Z,101106.27
2023-04-16T12:01:13.208Z,101113.91
2023-04-16T12:02:18.760Z,101112.22
2023-04-16T12:03:24.604Z,101110.88
2023-04-16T12:04:30.350Z,101112.98
2023-04-16T12:05:35.864Z,101117.97
2023-04-16T12:06:41.217Z,101115.73
2023-04-16T12:07:46.549Z,101123.68
2023-04-16T12:08:51.914Z,101125.13
2023-04-16T12:09:57.267Z,101121.03
2023-04-16T12:11:02.606Z,101117.01
2023-04-16T12:12:07.975Z,101116.5
2023-04-16T12:13:13.364Z,101122.27
2023-04-16T12:14:18.705Z,101121.52
2023-04-16T12:15:24.037Z,101116.08
2023-04-16T12:16:29.452Z,101121.52
2023-04-16T12:17:35.253Z,101120.17
2023-04-16T12:18:40.717Z,101120.52
2023-04-16T12:19:46.083Z,101123.41
2023-04-16T12:20:51.463Z,101123.82
2023-04-16T12:21:56.849Z,101123.89
2023-04-16T12:23:02.192Z,101125.99
2023-04-16T12:24:07.569Z,101123.96
2023-04-16T12:25:12.915Z,101126.16
2023-04-16T12:26:18.366Z,101127.57
2023-04-16T12:27:23.700Z,101130.84
2023-04-16T12:28:29.049Z,101129.64
2023-04-16T12:29:34.404Z,101125.89
2023-04-16T12:30:39.784Z,101125.3